Terminal Aerodrome Forecast
Issued by NWS Corpus Christi, TX

Home | Current Version | Previous Version | Text Only | Print | Product List | Glossary On
Versions: 1 2 3 4 5 6 7 8 9 10 11 12 13
435
FTUS44 KCRP 120704 AAA
TAFCRP
TAF AMD
KCRP 120704Z 1207/1306 17007KT 3SM BR FEW005
      TEMPO 1207/1210 1SM BR BKN002
     FM121000 18008KT P6SM SCT015
      TEMPO 1210/1213 3SM BR SCT005
     FM121600 16012G18KT P6SM SCT050
     FM130000 15008KT P6SM SKC=

USA.gov is the U.S. government's official web portal to all federal, state and local government web resources and services.